Terminal Aerodrome Forecast
Issued by NWS Buffalo, NY

Home | Current Version | Previous Version | Text Only | Print | Product List | Glossary On
Versions: 1 2 3 4 5 6 7 8 9 10 11 12 13 14 15 16 17 18 19 20 21 22 23 24 25 26
000
FTUS41 KBUF 281700
TAFBUF
TAF
KBUF 281732Z 2818/2918 22008KT P6SM FEW250
     FM290800 14005KT P6SM BKN110
     FM291300 15010KT P6SM VCSH OVC035
     FM291400 16011KT P6SM OVC060
     FM291700 16015G22KT P6SM VCSH SCT030 OVC060=

USA.gov is the U.S. government's official web portal to all federal, state and local government web resources and services.